Time;durP1;ratioP1;P1;durP2;ratioP2;P2;SDS_P1;SDS_P2;PMS_P1;PMS_P2;Temp;Humidity;BMP_temperature;BMP_pressure;BME280_temperature;BME280_humidity;BME280_pressure;Samples;Min_cycle;Max_cycle;Signal;HPM_P1;HPM_P2
2021/07/30 00:02:19;;;;;;;4.95;1.95;;;14.10;82.20;;;;;;6183437;23;20268;-73
2021/07/30 00:04:46;;;;;;;3.05;1.45;;;14.10;82.50;;;;;;6185798;23;20080;-73
2021/07/30 00:07:13;;;;;;;5.55;2.10;;;14.10;82.50;;;;;;6185988;23;20016;-73
2021/07/30 00:09:48;;;;;;;10.07;1.95;;;14.10;82.50;;;;;;6186504;23;20362;-73
2021/07/30 00:12:15;;;;;;;5.95;1.80;;;14.00;82.40;;;;;;6186179;23;20025;-73
2021/07/30 00:14:43;;;;;;;3.30;1.38;;;14.00;82.50;;;;;;6181952;23;20115;-73
2021/07/30 00:17:10;;;;;;;3.22;1.48;;;14.00;82.80;;;;;;6185041;23;20379;-73
2021/07/30 00:19:37;;;;;;;3.78;2.10;;;14.00;82.90;;;;;;6185346;23;20190;-73
2021/07/30 00:22:05;;;;;;;6.22;1.85;;;13.90;83.00;;;;;;6184598;23;20025;-73
2021/07/30 00:24:32;;;;;;;5.25;1.83;;;13.80;83.60;;;;;;6185528;23;20273;-73
2021/07/30 00:27:00;;;;;;;4.63;1.70;;;13.80;83.80;;;;;;6183751;23;20292;-73
2021/07/30 00:29:28;;;;;;;4.40;1.77;;;13.70;83.60;;;;;;6209019;23;20025;-74
2021/07/30 00:31:55;;;;;;;4.72;1.60;;;13.70;83.40;;;;;;6215526;23;20090;-74
2021/07/30 00:34:22;;;;;;;3.38;1.55;;;13.70;83.30;;;;;;6215664;23;20079;-73
2021/07/30 00:36:49;;;;;;;3.88;1.52;;;13.70;83.70;;;;;;6214809;23;20103;-73
2021/07/30 00:39:17;;;;;;;4.28;1.65;;;13.60;83.30;;;;;;6216073;23;20024;-73
2021/07/30 00:41:45;;;;;;;3.80;1.40;;;13.60;83.80;;;;;;6211089;23;20028;-74
2021/07/30 00:44:14;;;;;;;5.22;2.08;;;13.50;84.10;;;;;;6211464;23;20477;-73
2021/07/30 00:46:41;;;;;;;4.65;1.98;;;13.60;84.00;;;;;;6214177;23;20024;-73
2021/07/30 00:49:08;;;;;;;5.50;1.70;;;13.60;84.30;;;;;;6214596;23;20031;-73
2021/07/30 00:51:38;;;;;;;2.92;1.40;;;13.50;84.30;;;;;;6215291;23;20336;-73
2021/07/30 00:54:05;;;;;;;2.92;1.55;;;13.50;84.40;;;;;;6213876;23;20028;-73
2021/07/30 00:56:33;;;;;;;2.83;1.40;;;13.40;84.50;;;;;;6217051;23;20023;-73
2021/07/30 00:59:01;;;;;;;4.07;1.70;;;13.50;84.50;;;;;;6214172;23;20025;-73
2021/07/30 01:01:30;;;;;;;3.75;1.65;;;13.50;84.40;;;;;;6210135;23;20031;-73
2021/07/30 01:03:57;;;;;;;3.97;1.85;;;13.40;84.30;;;;;;6216937;23;20024;-74
2021/07/30 01:06:24;;;;;;;3.47;1.50;;;13.40;84.00;;;;;;6215579;23;20022;-73
2021/07/30 01:08:52;;;;;;;6.85;2.58;;;13.40;84.20;;;;;;6214061;23;20304;-73
2021/07/30 01:11:19;;;;;;;3.92;1.75;;;13.30;84.80;;;;;;6216483;23;20020;-74
2021/07/30 01:13:46;;;;;;;4.13;1.67;;;13.40;85.10;;;;;;6214561;23;20261;-73
2021/07/30 01:16:14;;;;;;;4.75;1.48;;;13.40;84.90;;;;;;6217620;23;20111;-74
2021/07/30 01:18:43;;;;;;;3.75;1.60;;;13.30;85.10;;;;;;6215834;23;20024;-74
2021/07/30 01:21:19;;;;;;;3.30;1.63;;;13.20;85.10;;;;;;6214101;23;20067;-73
2021/07/30 01:23:49;;;;;;;5.13;2.60;;;13.20;85.30;;;;;;6211960;23;20040;-74
2021/07/30 01:26:17;;;;;;;4.78;1.90;;;13.20;85.40;;;;;;6217018;23;20029;-73
2021/07/30 01:28:45;;;;;;;5.03;2.10;;;13.20;85.70;;;;;;6239717;23;20027;-73
2021/07/30 01:31:12;;;;;;;4.88;1.67;;;13.10;85.50;;;;;;6215619;23;20048;-73
2021/07/30 01:33:39;;;;;;;5.00;1.88;;;13.10;85.70;;;;;;6215179;23;20102;-73
2021/07/30 01:36:06;;;;;;;5.63;2.03;;;13.10;85.60;;;;;;6215746;23;20025;-73
2021/07/30 01:38:34;;;;;;;5.55;1.83;;;13.10;85.70;;;;;;6215832;23;20008;-74
2021/07/30 01:41:11;;;;;;;3.88;1.50;;;13.00;85.50;;;;;;6216485;23;20013;-73
2021/07/30 01:43:39;;;;;;;4.25;1.73;;;13.10;85.50;;;;;;6215503;23;20031;-73
2021/07/30 01:46:07;;;;;;;3.60;1.67;;;13.00;85.80;;;;;;6215695;23;20034;-73
2021/07/30 01:48:34;;;;;;;3.53;1.70;;;13.00;85.80;;;;;;6213962;23;20197;-74
2021/07/30 01:51:02;;;;;;;4.57;1.88;;;13.10;85.90;;;;;;6215710;23;20316;-73
2021/07/30 01:53:32;;;;;;;3.97;1.98;;;13.10;85.90;;;;;;6214558;23;20083;-73
2021/07/30 01:56:03;;;;;;;8.43;2.15;;;13.00;85.60;;;;;;6215661;23;20028;-73
2021/07/30 01:58:33;;;;;;;3.00;1.40;;;12.90;85.70;;;;;;6215712;23;20366;-74
2021/07/30 02:01:00;;;;;;;4.60;1.67;;;12.90;85.70;;;;;;6212553;23;20312;-73
2021/07/30 02:03:27;;;;;;;6.07;1.83;;;12.90;85.70;;;;;;6218234;23;20331;-73
2021/07/30 02:05:54;;;;;;;2.30;1.15;;;12.80;85.50;;;;;;6216184;23;20020;-73
2021/07/30 02:08:22;;;;;;;3.80;1.80;;;12.90;85.40;;;;;;6215672;23;20029;-73
2021/07/30 02:10:49;;;;;;;4.03;1.60;;;12.80;85.50;;;;;;6217705;23;20224;-73
2021/07/30 02:16:02;;;;;;;3.60;1.48;;;12.70;85.50;;;;;;6215251;23;20215;-73
2021/07/30 02:18:29;;;;;;;4.22;1.77;;;12.70;85.80;;;;;;6219616;23;20112;-73
2021/07/30 02:20:56;;;;;;;3.88;1.58;;;12.70;85.70;;;;;;6217542;23;20035;-73
2021/07/30 02:23:24;;;;;;;3.53;1.65;;;12.70;85.70;;;;;;6214312;23;20028;-73
2021/07/30 02:25:51;;;;;;;6.70;2.05;;;12.70;85.80;;;;;;6216987;23;20032;-73
2021/07/30 02:28:18;;;;;;;2.92;1.58;;;12.60;86.30;;;;;;6215433;23;20303;-73
2021/07/30 02:30:45;;;;;;;2.45;1.35;;;12.60;86.30;;;;;;6214791;23;20032;-73
2021/07/30 02:33:14;;;;;;;3.70;1.45;;;12.60;86.40;;;;;;6216507;23;20031;-73
2021/07/30 02:35:41;;;;;;;6.07;2.17;;;12.60;86.30;;;;;;6217171;23;20017;-73
2021/07/30 02:38:08;;;;;;;4.07;1.98;;;12.60;86.30;;;;;;6219420;23;20016;-73
2021/07/30 02:40:35;;;;;;;4.80;2.03;;;12.60;86.40;;;;;;6221501;23;20032;-73
2021/07/30 02:43:03;;;;;;;3.45;1.45;;;12.50;86.10;;;;;;6218425;23;20024;-73
2021/07/30 02:45:30;;;;;;;3.47;1.77;;;12.50;86.50;;;;;;6219857;23;20359;-73
2021/07/30 02:47:58;;;;;;;4.28;1.83;;;12.50;86.30;;;;;;6218642;23;20024;-73
2021/07/30 02:50:26;;;;;;;3.08;1.63;;;12.50;86.10;;;;;;6218256;23;20035;-73
2021/07/30 02:52:54;;;;;;;2.78;1.40;;;12.60;85.80;;;;;;6220349;23;20272;-73
2021/07/30 02:55:21;;;;;;;3.38;1.80;;;12.40;85.70;;;;;;6216111;23;20020;-73
2021/07/30 02:57:48;;;;;;;4.00;1.52;;;12.40;85.90;;;;;;6218355;23;20455;-73
2021/07/30 03:00:16;;;;;;;3.05;1.63;;;12.20;86.20;;;;;;6211867;23;20028;-73
2021/07/30 03:02:44;;;;;;;4.10;1.60;;;12.20;86.50;;;;;;6217475;23;20021;-73
2021/07/30 03:05:12;;;;;;;2.75;1.70;;;12.10;86.70;;;;;;6216815;23;20088;-73
2021/07/30 03:07:40;;;;;;;4.43;1.80;;;12.10;86.70;;;;;;6215614;23;20029;-73
2021/07/30 03:10:08;;;;;;;3.35;1.65;;;12.00;86.80;;;;;;6218482;23;20016;-73
2021/07/30 03:12:36;;;;;;;3.72;1.48;;;12.00;87.00;;;;;;6216382;23;20021;-73
2021/07/30 03:15:03;;;;;;;3.72;1.63;;;12.00;87.00;;;;;;6219297;23;20013;-73
2021/07/30 03:17:32;;;;;;;2.67;1.27;;;12.00;87.00;;;;;;6215934;23;20028;-73
2021/07/30 03:19:59;;;;;;;4.38;1.58;;;12.10;86.90;;;;;;6215764;23;20247;-73
2021/07/30 03:22:26;;;;;;;5.10;1.65;;;12.10;86.50;;;;;;6216230;23;20025;-73
2021/07/30 03:24:55;;;;;;;4.70;1.80;;;12.10;86.40;;;;;;6216798;23;20016;-73
2021/07/30 03:27:22;;;;;;;6.25;2.00;;;12.10;86.70;;;;;;6217551;23;20028;-73
2021/07/30 03:29:49;;;;;;;5.65;2.20;;;12.10;87.00;;;;;;6218201;23;20025;-72
2021/07/30 03:32:16;;;;;;;4.70;1.85;;;12.10;86.90;;;;;;6215451;23;20247;-73
2021/07/30 03:34:45;;;;;;;3.67;1.38;;;12.10;87.00;;;;;;6215326;23;20467;-73
2021/07/30 03:37:13;;;;;;;2.70;1.38;;;12.10;86.90;;;;;;6214497;23;20027;-72
2021/07/30 03:39:40;;;;;;;3.33;1.17;;;12.20;86.90;;;;;;6218507;23;20205;-73
2021/07/30 03:42:09;;;;;;;2.55;1.50;;;12.10;86.90;;;;;;6214494;23;20228;-73
2021/07/30 03:44:37;;;;;;;4.38;1.90;;;12.10;86.90;;;;;;6214062;23;20028;-73
2021/07/30 03:47:05;;;;;;;3.67;1.77;;;12.20;86.80;;;;;;6217843;23;20350;-73
2021/07/30 03:49:33;;;;;;;4.28;1.50;;;12.10;87.00;;;;;;6212968;23;20025;-73
2021/07/30 03:52:00;;;;;;;4.75;1.90;;;12.10;87.00;;;;;;6217812;23;20401;-73
2021/07/30 03:54:29;;;;;;;7.93;1.73;;;12.10;87.10;;;;;;6217550;23;20231;-73
2021/07/30 03:56:57;;;;;;;4.57;1.92;;;12.10;87.00;;;;;;6216061;23;20068;-73
2021/07/30 03:59:25;;;;;;;4.43;2.08;;;12.10;87.00;;;;;;6209374;23;20028;-73
2021/07/30 04:01:52;;;;;;;4.88;1.83;;;12.00;87.30;;;;;;6212512;23;20102;-73
2021/07/30 04:04:20;;;;;;;3.92;1.85;;;12.10;87.20;;;;;;6214402;23;20080;-73
2021/07/30 04:06:47;;;;;;;4.95;1.70;;;12.20;86.90;;;;;;6215641;23;20084;-73
2021/07/30 04:09:15;;;;;;;5.03;1.88;;;12.20;86.70;;;;;;6212727;23;20035;-73
2021/07/30 04:11:43;;;;;;;4.38;1.73;;;12.20;86.60;;;;;;6214321;23;20243;-73
2021/07/30 04:14:11;;;;;;;5.18;2.05;;;12.20;86.70;;;;;;6217534;23;20016;-73
2021/07/30 04:16:39;;;;;;;8.25;2.10;;;12.20;86.70;;;;;;6217410;23;20031;-73
2021/07/30 04:19:07;;;;;;;5.05;2.17;;;12.10;86.70;;;;;;6210540;23;20087;-73
2021/07/30 04:21:35;;;;;;;5.10;1.95;;;12.20;86.70;;;;;;6214013;23;20031;-73
2021/07/30 04:24:02;;;;;;;4.13;1.88;;;12.20;86.60;;;;;;6213218;23;20291;-73
2021/07/30 04:26:29;;;;;;;3.33;1.90;;;12.20;86.50;;;;;;6212551;23;20052;-73
2021/07/30 04:28:56;;;;;;;3.75;1.60;;;12.20;86.60;;;;;;6217217;23;20032;-73
2021/07/30 04:31:24;;;;;;;4.82;1.88;;;12.20;86.70;;;;;;6217773;23;20044;-74
2021/07/30 04:33:52;;;;;;;3.22;1.63;;;12.20;86.50;;;;;;6216535;23;20229;-73
2021/07/30 04:36:19;;;;;;;3.70;1.88;;;12.20;86.70;;;;;;6213522;23;20028;-73
2021/07/30 04:38:47;;;;;;;7.63;2.22;;;12.30;86.60;;;;;;6214470;23;20236;-73
2021/07/30 04:41:14;;;;;;;3.88;2.10;;;12.30;86.70;;;;;;6212700;23;20024;-73
2021/07/30 04:43:41;;;;;;;4.07;1.95;;;12.40;86.50;;;;;;6215956;23;20048;-73
2021/07/30 04:46:16;;;;;;;3.25;1.63;;;12.40;86.30;;;;;;6216270;23;20386;-73
2021/07/30 04:48:43;;;;;;;3.53;1.98;;;12.40;86.30;;;;;;6214861;23;20031;-73
2021/07/30 04:51:13;;;;;;;4.45;2.25;;;12.40;86.10;;;;;;6216369;23;20024;-73
2021/07/30 04:53:40;;;;;;;5.28;2.03;;;12.60;86.00;;;;;;6217238;23;20025;-73
2021/07/30 04:56:07;;;;;;;5.88;2.20;;;12.50;85.90;;;;;;6216627;23;20015;-74
2021/07/30 04:58:35;;;;;;;5.80;2.00;;;12.60;85.80;;;;;;6218137;23;20054;-73
2021/07/30 05:01:05;;;;;;;4.60;2.20;;;12.60;85.90;;;;;;6211940;23;20024;-74
2021/07/30 05:03:35;;;;;;;3.83;2.03;;;12.60;85.70;;;;;;6215949;23;20047;-73
2021/07/30 05:06:13;;;;;;;3.67;2.08;;;12.70;85.50;;;;;;6216070;23;20231;-73
2021/07/30 05:08:41;;;;;;;6.72;2.20;;;12.80;85.60;;;;;;6212337;23;20033;-73
2021/07/30 05:11:10;;;;;;;4.32;1.90;;;12.80;85.60;;;;;;6215992;23;20048;-73
2021/07/30 05:13:38;;;;;;;6.07;1.90;;;12.90;85.30;;;;;;6211068;23;20032;-73
2021/07/30 05:16:07;;;;;;;5.80;2.08;;;12.90;85.00;;;;;;6216967;23;20332;-73
2021/07/30 05:18:34;;;;;;;4.70;2.05;;;12.90;84.90;;;;;;6214974;23;20084;-74
2021/07/30 05:21:04;;;;;;;6.57;2.92;;;12.90;85.10;;;;;;6215482;23;20024;-73
2021/07/30 05:23:40;;;;;;;4.65;1.50;;;13.00;84.80;;;;;;6213073;23;20024;-74
2021/07/30 05:26:07;;;;;;;4.93;1.95;;;13.00;85.00;;;;;;6212159;23;20029;-73
2021/07/30 05:28:34;;;;;;;3.53;1.52;;;13.10;84.80;;;;;;6214722;23;20313;-74
2021/07/30 05:31:02;;;;;;;4.57;1.67;;;13.10;84.60;;;;;;6215555;23;20017;-73
2021/07/30 05:33:37;;;;;;;5.95;2.03;;;13.10;84.40;;;;;;6217027;23;20020;-74
2021/07/30 05:36:04;;;;;;;7.00;1.77;;;13.20;84.30;;;;;;6215763;23;20024;-74
2021/07/30 05:38:31;;;;;;;5.18;1.98;;;13.20;84.50;;;;;;6215983;23;20437;-73
2021/07/30 05:41:00;;;;;;;5.75;2.00;;;13.20;84.40;;;;;;6215530;23;20029;-74
2021/07/30 05:43:29;;;;;;;3.97;2.10;;;13.30;84.30;;;;;;6213637;23;20084;-74
2021/07/30 05:45:56;;;;;;;5.38;1.80;;;13.30;84.30;;;;;;6218318;23;20048;-74
2021/07/30 05:48:24;;;;;;;3.90;1.92;;;13.40;84.20;;;;;;6216470;23;20315;-73
2021/07/30 05:50:51;;;;;;;4.00;2.00;;;13.50;83.90;;;;;;6213390;23;20332;-74
2021/07/30 05:53:19;;;;;;;4.25;1.75;;;13.60;83.80;;;;;;6217400;23;20318;-74
2021/07/30 05:55:46;;;;;;;3.92;1.80;;;13.70;83.10;;;;;;6217681;23;20025;-73
2021/07/30 05:58:14;;;;;;;5.20;2.15;;;13.80;84.00;;;;;;6219010;23;20024;-74
2021/07/30 06:00:42;;;;;;;6.30;2.15;;;13.90;82.80;;;;;;6214837;23;20017;-73
2021/07/30 06:03:09;;;;;;;4.00;1.95;;;14.00;82.80;;;;;;6220856;23;20312;-73
2021/07/30 06:05:36;;;;;;;4.63;2.28;;;14.10;82.10;;;;;;6217708;23;20078;-73
2021/07/30 06:08:05;;;;;;;5.10;2.22;;;14.20;82.10;;;;;;6217090;23;20017;-73
2021/07/30 06:10:33;;;;;;;5.97;1.60;;;14.20;82.00;;;;;;6219225;23;20039;-74
2021/07/30 06:13:00;;;;;;;4.88;2.10;;;14.40;81.70;;;;;;6218347;23;20020;-73
2021/07/30 06:15:32;;;;;;;4.05;1.92;;;14.50;81.60;;;;;;6217932;23;20297;-73
2021/07/30 06:18:02;;;;;;;3.35;1.85;;;14.60;81.70;;;;;;6217890;23;20020;-74
2021/07/30 06:20:31;;;;;;;7.38;2.17;;;14.60;81.10;;;;;;6216651;23;20044;-74
2021/07/30 06:22:58;;;;;;;4.45;1.92;;;14.70;80.90;;;;;;6217032;23;20252;-75
2021/07/30 06:25:26;;;;;;;3.92;1.75;;;14.80;80.60;;;;;;6216376;23;20024;-74
2021/07/30 06:27:53;;;;;;;4.65;1.80;;;14.90;80.60;;;;;;6215595;23;20040;-74
2021/07/30 06:30:20;;;;;;;5.40;2.13;;;15.10;79.80;;;;;;6215958;23;20047;-73
2021/07/30 06:32:49;;;;;;;5.32;1.75;;;15.10;79.90;;;;;;6214958;23;20027;-74
2021/07/30 06:35:16;;;;;;;3.78;2.10;;;15.20;79.70;;;;;;6217795;23;20061;-74
2021/07/30 06:37:44;;;;;;;4.93;2.20;;;15.20;79.60;;;;;;6218344;23;20028;-74
2021/07/30 06:40:12;;;;;;;6.93;1.85;;;15.40;79.20;;;;;;6216436;23;20035;-74
2021/07/30 06:42:40;;;;;;;4.38;2.10;;;15.60;79.30;;;;;;6216903;23;20012;-73
2021/07/30 06:45:08;;;;;;;5.05;1.50;;;15.80;79.90;;;;;;6218303;23;20030;-73
2021/07/30 06:47:35;;;;;;;7.70;2.28;;;16.00;78.60;;;;;;6218844;23;20016;-73
2021/07/30 06:50:05;;;;;;;5.70;1.92;;;16.20;77.50;;;;;;6216081;23;20017;-73
2021/07/30 06:52:32;;;;;;;3.53;1.77;;;16.20;77.60;;;;;;6214314;23;20047;-73
2021/07/30 06:54:59;;;;;;;4.72;1.75;;;16.20;77.30;;;;;;6217743;23;20075;-73
2021/07/30 06:57:27;;;;;;;5.35;2.10;;;16.30;77.40;;;;;;6217521;23;20008;-73
2021/07/30 06:59:54;;;;;;;4.03;1.67;;;16.40;76.90;;;;;;6219118;23;20205;-73
2021/07/30 07:02:21;;;;;;;7.57;1.95;;;16.50;77.10;;;;;;6212843;23;20020;-73
2021/07/30 07:04:48;;;;;;;2.80;1.60;;;16.50;77.00;;;;;;6218095;23;20037;-74
2021/07/30 07:07:17;;;;;;;4.85;1.88;;;16.60;76.40;;;;;;6217658;23;20042;-73
2021/07/30 07:09:44;;;;;;;3.90;1.88;;;16.60;76.50;;;;;;6218725;23;20374;-74
2021/07/30 07:12:11;;;;;;;3.65;1.77;;;16.80;76.30;;;;;;6218688;23;20320;-74
2021/07/30 07:14:38;;;;;;;5.70;1.90;;;16.90;76.10;;;;;;6215806;23;20020;-74
2021/07/30 07:17:06;;;;;;;4.10;1.80;;;16.90;75.40;;;;;;6220323;23;20015;-74
2021/07/30 07:19:33;;;;;;;6.65;1.75;;;17.10;75.20;;;;;;6217922;23;20063;-74
2021/07/30 07:22:00;;;;;;;3.55;2.00;;;17.10;74.90;;;;;;6218305;23;20015;-74
2021/07/30 07:24:33;;;;;;;3.22;1.80;;;17.30;74.90;;;;;;6218753;23;20017;-74
2021/07/30 07:27:00;;;;;;;2.70;1.83;;;17.40;74.20;;;;;;6217338;23;20016;-76
2021/07/30 07:29:31;;;;;;;3.47;1.85;;;17.50;74.40;;;;;;6210574;23;20328;-75
2021/07/30 07:31:59;;;;;;;2.58;1.48;;;17.50;72.70;;;;;;6217733;23;20030;-76
2021/07/30 07:34:26;;;;;;;3.55;1.70;;;17.50;72.80;;;;;;6246176;23;20067;-76
2021/07/30 07:36:53;;;;;;;3.95;1.60;;;17.70;73.00;;;;;;6222004;23;20023;-76
2021/07/30 07:39:21;;;;;;;2.67;1.50;;;17.80;72.90;;;;;;6222204;23;20023;-76
2021/07/30 07:41:49;;;;;;;4.43;1.80;;;18.00;72.50;;;;;;6220494;23;20008;-75
2021/07/30 07:44:17;;;;;;;4.40;1.88;;;18.20;71.10;;;;;;6220774;23;20066;-75
2021/07/30 07:46:46;;;;;;;4.65;2.10;;;18.20;70.80;;;;;;6219237;23;20028;-76
2021/07/30 07:49:14;;;;;;;3.78;1.83;;;18.40;71.10;;;;;;6218619;23;20035;-76
2021/07/30 07:51:41;;;;;;;3.58;1.80;;;18.40;70.00;;;;;;6219181;23;20424;-76
2021/07/30 07:54:08;;;;;;;4.85;1.63;;;18.50;70.70;;;;;;6219564;23;20267;-76
2021/07/30 07:56:35;;;;;;;7.15;2.83;;;18.60;69.80;;;;;;6222665;23;20039;-76
2021/07/30 07:59:04;;;;;;;6.57;1.98;;;18.70;69.70;;;;;;6222118;23;20016;-76
2021/07/30 08:01:31;;;;;;;4.10;1.90;;;18.90;69.10;;;;;;6215133;23;20114;-77
2021/07/30 08:03:59;;;;;;;3.67;1.65;;;19.00;68.50;;;;;;6216505;23;20020;-77
2021/07/30 08:06:26;;;;;;;4.35;2.10;;;19.10;68.80;;;;;;6221236;23;20084;-77
2021/07/30 08:08:53;;;;;;;4.47;1.75;;;19.30;66.60;;;;;;6219453;23;20224;-77
2021/07/30 08:11:20;;;;;;;7.55;1.98;;;19.40;66.80;;;;;;6219332;23;20028;-77
2021/07/30 08:13:48;;;;;;;3.95;2.05;;;19.60;66.20;;;;;;6220768;23;20308;-77
2021/07/30 08:16:23;;;;;;;7.32;1.90;;;19.70;67.00;;;;;;6220901;23;20016;-77
2021/07/30 08:18:50;;;;;;;5.18;1.40;;;19.90;65.50;;;;;;6220861;23;20327;-76
2021/07/30 08:21:17;;;;;;;4.25;1.67;;;19.90;64.30;;;;;;6221198;23;20051;-77
2021/07/30 08:23:44;;;;;;;5.32;1.95;;;20.10;65.00;;;;;;6243086;23;20031;-77
2021/07/30 08:26:11;;;;;;;5.80;1.55;;;20.10;64.50;;;;;;6220602;23;20032;-77
2021/07/30 08:28:39;;;;;;;4.68;1.77;;;20.20;64.50;;;;;;6220938;23;20024;-77
2021/07/30 08:31:06;;;;;;;2.90;1.58;;;20.40;64.10;;;;;;6220397;23;20323;-77
2021/07/30 08:33:35;;;;;;;5.15;1.67;;;20.50;63.30;;;;;;6217523;23;20025;-77
2021/07/30 08:36:03;;;;;;;5.22;2.00;;;20.60;62.60;;;;;;6221382;23;20284;-77
2021/07/30 08:38:32;;;;;;;3.80;1.85;;;20.80;61.90;;;;;;6219882;23;20024;-77
2021/07/30 08:40:59;;;;;;;2.60;1.60;;;20.90;61.40;;;;;;6217737;23;20080;-77
2021/07/30 08:43:26;;;;;;;4.25;1.70;;;21.00;60.50;;;;;;6219644;23;20197;-77
2021/07/30 08:45:53;;;;;;;3.40;1.70;;;21.00;60.10;;;;;;6219658;23;20031;-77
2021/07/30 08:48:21;;;;;;;5.43;1.98;;;21.10;61.10;;;;;;6215097;23;20025;-77
2021/07/30 08:50:50;;;;;;;5.15;2.10;;;21.20;60.00;;;;;;6215133;23;20245;-77
2021/07/30 08:53:24;;;;;;;2.70;1.30;;;21.30;59.50;;;;;;6219621;23;20020;-77
2021/07/30 08:55:51;;;;;;;4.10;1.67;;;21.50;60.00;;;;;;6219647;23;20264;-77
2021/07/30 08:58:19;;;;;;;5.03;1.80;;;21.40;59.80;;;;;;6219315;23;20013;-77
2021/07/30 09:00:46;;;;;;;4.70;1.85;;;21.50;59.00;;;;;;6214175;23;20021;-77
2021/07/30 09:03:14;;;;;;;4.63;1.50;;;21.60;59.10;;;;;;6219680;23;20351;-77
2021/07/30 09:05:41;;;;;;;5.25;1.77;;;21.60;58.70;;;;;;6222203;23;20088;-77
2021/07/30 09:08:10;;;;;;;5.97;1.63;;;21.80;58.70;;;;;;6220904;23;20216;-77
2021/07/30 09:10:40;;;;;;;3.67;1.37;;;21.80;58.40;;;;;;6221271;23;20016;-77
2021/07/30 09:13:19;;;;;;;3.40;1.42;;;22.00;57.50;;;;;;6224012;23;20439;-77
2021/07/30 09:15:48;;;;;;;2.85;1.40;;;22.00;58.00;;;;;;6223115;23;20327;-77
2021/07/30 09:18:30;;;;;;;3.35;1.50;;;22.10;57.80;;;;;;6220779;23;20071;-77
2021/07/30 09:21:32;;;;;;;4.53;1.73;;;22.30;56.10;;;;;;6223214;23;20024;-77
2021/07/30 09:24:02;;;;;;;6.10;1.80;;;22.60;56.30;;;;;;6215513;23;20079;-77
2021/07/30 09:26:54;;;;;;;5.10;2.88;;;22.40;54.60;;;;;;6220827;23;20324;-77
2021/07/30 09:29:22;;;;;;;3.53;1.80;;;22.20;55.10;;;;;;6220991;23;20039;-77
2021/07/30 09:31:51;;;;;;;4.35;1.70;;;22.40;55.00;;;;;;6221950;23;20023;-77
2021/07/30 09:34:20;;;;;;;4.05;1.60;;;22.60;55.50;;;;;;6222929;23;20021;-77
2021/07/30 09:36:51;;;;;;;5.18;1.73;;;22.70;55.20;;;;;;6223555;23;20094;-77
2021/07/30 09:39:22;;;;;;;2.50;1.40;;;22.80;55.00;;;;;;6224936;23;20031;-76
2021/07/30 09:42:07;;;;;;;8.23;1.90;;;22.70;53.70;;;;;;6222792;23;20080;-76
2021/07/30 09:44:37;;;;;;;3.58;1.48;;;22.50;53.80;;;;;;6226875;23;20031;-76
2021/07/30 09:47:11;;;;;;;3.65;1.70;;;22.70;53.10;;;;;;6225656;23;20031;-78
2021/07/30 09:49:53;;;;;;;4.47;1.63;;;22.70;52.10;;;;;;6224354;23;20020;-77
2021/07/30 09:52:25;;;;;;;6.53;2.25;;;23.00;52.30;;;;;;6225285;23;20051;-77
2021/07/30 09:55:00;;;;;;;4.18;1.52;;;23.20;52.70;;;;;;6222558;23;20075;-75
2021/07/30 09:57:33;;;;;;;3.33;1.50;;;23.30;51.30;;;;;;6221172;23;20016;-74
2021/07/30 10:00:03;;;;;;;3.97;1.30;;;23.30;50.80;;;;;;6225566;23;20247;-77
2021/07/30 10:02:33;;;;;;;4.53;1.63;;;23.40;49.70;;;;;;6222269;23;20220;-77
2021/07/30 10:05:02;;;;;;;5.20;2.03;;;23.70;48.80;;;;;;6218519;23;20016;-77
2021/07/30 10:07:31;;;;;;;3.72;1.50;;;23.80;49.70;;;;;;6220170;23;20084;-74
2021/07/30 10:10:04;;;;;;;3.37;1.60;;;23.80;48.80;;;;;;6223036;23;20031;-77
2021/07/30 10:12:32;;;;;;;4.32;1.70;;;23.80;48.70;;;;;;6221816;23;20055;-75
2021/07/30 10:15:01;;;;;;;4.88;1.80;;;24.30;46.60;;;;;;6222216;23;20048;-76
2021/07/30 10:17:31;;;;;;;3.05;1.45;;;25.10;46.50;;;;;;6219692;23;20040;-75
2021/07/30 10:20:01;;;;;;;3.42;1.80;;;25.50;44.10;;;;;;6219644;23;20024;-76
2021/07/30 10:22:36;;;;;;;4.68;1.75;;;26.00;42.80;;;;;;6221098;23;20051;-76
2021/07/30 10:25:06;;;;;;;3.05;1.45;;;26.60;42.70;;;;;;6222924;23;20368;-77
2021/07/30 10:27:41;;;;;;;4.93;1.67;;;27.30;41.10;;;;;;6223252;23;20055;-78
2021/07/30 10:30:11;;;;;;;4.05;1.70;;;27.50;40.00;;;;;;6221252;23;20329;-77
2021/07/30 10:32:56;;;;;;;4.32;1.73;;;28.00;39.80;;;;;;6228143;23;20048;-77
2021/07/30 10:35:46;;;;;;;3.72;1.90;;;26.80;41.10;;;;;;6222197;23;20028;-77
2021/07/30 10:38:21;;;;;;;6.38;1.70;;;26.90;41.90;;;;;;6219331;23;20037;-77
2021/07/30 10:41:19;;;;;;;2.92;1.55;;;27.80;40.80;;;;;;6223086;23;20025;-76
2021/07/30 10:44:20;;;;;;;6.47;2.50;;;28.60;38.50;;;;;;6220835;23;20239;-77
2021/07/30 10:47:19;;;;;;;4.15;1.80;;;28.30;39.20;;;;;;6129942;23;20056;-76
2021/07/30 10:49:46;;;;;;;5.32;1.80;;;28.50;38.70;;;;;;6125758;23;20299;-77
2021/07/30 10:52:28;;;;;;;5.50;1.98;;;28.40;39.40;;;;;;6189505;23;20055;-77
2021/07/30 10:54:56;;;;;;;2.92;1.60;;;28.20;39.90;;;;;;6224099;23;20089;-76
2021/07/30 10:57:50;;;;;;;3.38;1.67;;;29.20;37.50;;;;;;6221427;23;20044;-77
2021/07/30 11:00:18;;;;;;;7.65;2.17;;;29.80;37.00;;;;;;6221617;23;20047;-77
2021/07/30 11:03:07;;;;;;;2.53;1.50;;;28.30;40.10;;;;;;6223798;23;20009;-78
2021/07/30 11:05:35;;;;;;;;;;;28.90;39.40;;;;;;6222889;23;20304;-77
2021/07/30 11:08:06;;;;;;;6.43;1.83;;;27.70;41.10;;;;;;6222070;23;20219;-77
2021/07/30 11:10:34;;;;;;;7.65;2.05;;;29.30;38.40;;;;;;6218461;23;20028;-77
2021/07/30 11:13:05;;;;;;;3.60;1.42;;;30.80;35.60;;;;;;6220272;23;20052;-77
2021/07/30 11:15:34;;;;;;;4.13;1.75;;;31.20;35.40;;;;;;6215951;23;20092;-76
2021/07/30 11:18:02;;;;;;;2.90;1.70;;;31.00;33.70;;;;;;6219606;23;20029;-78
2021/07/30 11:20:37;;;;;;;5.20;1.98;;;31.90;33.30;;;;;;6218827;23;20028;-77
2021/07/30 11:23:06;;;;;;;5.05;1.58;;;32.00;33.80;;;;;;6223053;23;20225;-77
2021/07/30 11:25:34;;;;;;;3.60;1.73;;;33.20;30.90;;;;;;6222455;23;20248;-78
2021/07/30 11:28:03;;;;;;;4.30;1.42;;;32.70;32.10;;;;;;6223492;23;20038;-78
2021/07/30 11:30:31;;;;;;;2.45;1.30;;;33.30;30.70;;;;;;6220804;23;20028;-78
2021/07/30 11:33:00;;;;;;;3.85;1.80;;;32.90;30.70;;;;;;6222107;23;20028;-77
2021/07/30 11:35:31;;;;;;;3.97;1.73;;;33.50;31.40;;;;;;6222671;23;20020;-78
2021/07/30 11:38:02;;;;;;;3.50;1.92;;;32.90;32.20;;;;;;6224593;23;20308;-78
2021/07/30 11:40:31;;;;;;;4.32;1.48;;;33.60;30.60;;;;;;6223315;23;20227;-77
2021/07/30 11:43:09;;;;;;;2.58;1.40;;;34.40;30.30;;;;;;6223146;23;20023;-78
2021/07/30 11:45:38;;;;;;;3.05;1.75;;;33.60;30.50;;;;;;6223254;23;20312;-78
2021/07/30 11:48:11;;;;;;;3.28;1.58;;;33.50;30.80;;;;;;6225486;23;20024;-78
2021/07/30 11:51:10;;;;;;;5.88;2.22;;;34.90;29.10;;;;;;6223256;23;20322;-79
2021/07/30 11:53:40;;;;;;;4.68;1.83;;;33.30;29.40;;;;;;6255354;23;20016;-78
2021/07/30 11:56:17;;;;;;;3.40;1.80;;;33.90;29.70;;;;;;6222142;23;20036;-77
2021/07/30 11:59:07;;;;;;;4.95;1.75;;;34.00;29.70;;;;;;6219422;23;20029;-78
2021/07/30 12:01:37;;;;;;;2.85;1.40;;;33.20;30.90;;;;;;6219013;23;20021;-78
2021/07/30 12:04:08;;;;;;;4.80;1.48;;;33.70;29.50;;;;;;6225250;23;20071;-77
2021/07/30 12:06:41;;;;;;;3.33;1.67;;;33.70;29.60;;;;;;6219656;23;20204;-77
2021/07/30 12:09:12;;;;;;;3.80;1.17;;;34.80;28.00;;;;;;6219175;23;20062;-77
2021/07/30 12:11:43;;;;;;;3.63;1.70;;;34.40;28.60;;;;;;6219570;23;20028;-76
2021/07/30 12:14:12;;;;;;;4.63;1.38;;;35.20;27.50;;;;;;6218595;23;20020;-76
2021/07/30 12:16:41;;;;;;;2.80;1.30;;;34.10;29.60;;;;;;6219140;23;20227;-76
2021/07/30 12:19:09;;;;;;;3.03;1.70;;;35.50;28.10;;;;;;6216536;23;20071;-77
2021/07/30 12:21:36;;;;;;;4.82;1.50;;;34.70;28.70;;;;;;6216312;23;20021;-77
2021/07/30 12:24:07;;;;;;;7.00;1.55;;;34.70;28.00;;;;;;6219179;23;20043;-77
2021/07/30 12:26:36;;;;;;;3.28;1.80;;;34.50;28.20;;;;;;6216553;23;20016;-77
2021/07/30 12:29:06;;;;;;;3.42;1.65;;;35.00;27.90;;;;;;6212915;23;20036;-77
2021/07/30 12:31:39;;;;;;;3.83;1.50;;;36.20;27.00;;;;;;6217540;23;20036;-77
2021/07/30 12:34:16;;;;;;;3.15;1.50;;;35.80;26.40;;;;;;6219075;23;20051;-77
2021/07/30 12:36:44;;;;;;;3.40;1.55;;;35.80;27.20;;;;;;6223842;23;20020;-76
2021/07/30 12:39:12;;;;;;;4.13;1.63;;;36.30;26.60;;;;;;6225475;23;20232;-75
2021/07/30 12:41:39;;;;;;;6.05;1.60;;;37.20;24.80;;;;;;6224216;23;20075;-75
2021/07/30 12:44:10;;;;;;;3.40;1.30;;;36.40;25.20;;;;;;6224392;23;20020;-75
2021/07/30 12:46:42;;;;;;;4.10;1.67;;;36.20;25.60;;;;;;6221683;23;20017;-76
2021/07/30 12:49:12;;;;;;;2.97;1.63;;;36.10;25.70;;;;;;6222861;23;20023;-76
2021/07/30 12:51:42;;;;;;;4.43;1.60;;;35.40;26.50;;;;;;6222574;23;20027;-75
2021/07/30 12:54:11;;;;;;;3.47;1.40;;;35.10;27.00;;;;;;6223186;23;20216;-76
2021/07/30 12:57:00;;;;;;;3.10;1.80;;;34.80;26.60;;;;;;6219673;23;20020;-76
2021/07/30 12:59:49;;;;;;;3.45;1.83;;;34.80;27.30;;;;;;6215713;23;20300;-75
2021/07/30 13:02:20;;;;;;;3.58;1.50;;;35.00;26.70;;;;;;6215854;23;20020;-75
2021/07/30 13:04:49;;;;;;;4.93;1.85;;;34.60;27.70;;;;;;6221540;23;20032;-76